Old Orchard Beach, Maine
Current Conditions -  °F | °C
As of 6:51 AM on Monday 20 Oct 2014 (Local Time) from KPWM Reporting Station
Broken Clouds Broken Clouds  
Wind Chill: 37°   Ceiling: 15000
Heat Index: 37°   Visibility: 10mi
Dew Point: 29°   Wind: 3mph
Humidity: 73%   Direction: 210°SSW
Pressure: 29.96"   Gusts: NA
Location:  43.52°N, 70.38°W
Report Text: KPWM 201051Z 21003KT 10SM FEW050 BKN150 03/M02 A2996 RMK AO2 SLP146 T00281017
Loading
Personal Weather Stations






























Interactive Weather Map New forecast layout! Learn more

10-Day Weather Forecast

Advertisements
Track Severe Weather on mobile